Northport NY Webcam more information Northport NY Webcam


Visit our other weather sites:

Template documentation
and downloads

And another site



Nearby METAR Reports


Warning: A non-numeric value encountered in /home/portan24/public_html/weather28/metar/wsMetarTxt.php on line 608

Warning: A non-numeric value encountered in /home/portan24/public_html/weather28/metar/wsMetarTxt.php on line 608

Warning: A non-numeric value encountered in /home/portan24/public_html/weather28/metar/wsMetarTxt.php on line 608

Warning: A non-numeric value encountered in /home/portan24/public_html/weather28/metar/wsMetarTxt.php on line 608

Warning: A non-numeric value encountered in /home/portan24/public_html/weather28/metar/wsMetarTxt.php on line 608

Warning: A non-numeric value encountered in /home/portan24/public_html/weather28/metar/wsMetarTxt.php on line 608
   
EBBR - Brussels International Airport, Belgium
Distance from station: W 9 mi
Updated: Aug 19 2018 1:20 am
Mostly Cloudy  
Mostly Cloudy  
   Wind: SSW 5.8 mph
Wind: SSW 5.8 mph
Temperature: 59°F
Dew Point: 55.4°F
Humidity: 88%
Barometer: 30.18 inHg
Clouds: Mostly Cloudy
Visibility: More than 6 mi
Cloud details: Mostly Cloudy 1067 m
EBBR 190520Z 21005KT 9999 BKN035 15/13 Q1022 NOSIG
EBBE - Beauvechain (Bevekom), Belgium
Distance from station: SSE 10 mi
Updated: Aug 19 2018 1:25 am
Clear  
Clear  
   Wind: SSW 5.8 mph
Wind: SSW 5.8 mph
Temperature: 59°F
Dew Point: 55.4°F
Humidity: 88%
Barometer: 30.18 inHg
Clouds: Clear
Visibility: More than 6 mi
Cloud details: Clear m
EBBE 190525Z AUTO 21005KT 9999 NCD 15/13 Q1022 BLU
EBDT - Schaffen, Belgium
Distance from station: ENE 18 mi
Updated: Aug 19 2018 1:25 am
Mostly Cloudy  
Mostly Cloudy  
   Wind: SSW 5.8 mph
Wind: SSW 5.8 mph
Temperature: 59°F
Dew Point: 55.4°F
Humidity: 88%
Barometer: 30.18 inHg
Clouds: Mostly Cloudy
Visibility: More than 6 mi
Cloud details: Mostly Cloudy 1097 m
EBDT 190525Z AUTO 20005KT 9999 BKN036/// 15/13 Q1022 BLU
EBAW - Antwerp/Deurne, Belgium
Distance from station: NNW 23 mi
Updated: Aug 19 2018 1:20 am
Mostly Cloudy  
Mostly Cloudy  
   Wind: SSW 8.1 mph
Wind: SSW 8.1 mph
Temperature: 60.8°F
Dew Point: 57.2°F
Humidity: 88%
Barometer: 30.15 inHg
Clouds: Mostly Cloudy
Visibility: More than 6 mi
Cloud details: Mostly Cloudy 1006 m
EBAW 190520Z 21007KT 180V240 9999 BKN033 16/14 Q1021 NOSIG
EBCI - Charleroi/Gosselies, Belgium
Distance from station: SSW 32 mi
Updated: Aug 19 2018 1:20 am
Few Clouds  
Few Clouds  
   Wind: SSW 5.8 mph
Wind: SSW 5.8 mph
Temperature: 57.2°F
Dew Point: 55.4°F
Humidity: 94%
Barometer: 30.21 inHg
Clouds: Few Clouds
Visibility: More than 6 mi
Cloud details: Few Clouds 975 m
EBCI 190520Z 21005KT 9999 FEW032 14/13 Q1023 NOSIG
EBLG - Bierset/Liege, Belgium
Distance from station: ESE 38 mi
Updated: Aug 19 2018 1:20 am
Mostly Cloudy  
Mostly Cloudy  
   Wind: South 5.8 mph
Wind: South 5.8 mph
Temperature: 59°F
Dew Point: 55.4°F
Humidity: 88%
Barometer: 30.18 inHg
Clouds: Mostly Cloudy
Visibility: More than 6 mi
Cloud details: Mostly Cloudy 1006 m
EBLG 190520Z 17005KT 140V200 9999 BKN033 15/13 Q1022 NOSIG

Script developed by  Saratoga-weather.org Adapted for the template by  Weerstation Leuven

You find our weather info also at:

Weather Underground

AWEKAS

Citizen Weather Observer Program (CWOP)

Equipment we use:

Weather-station
Davis VP2

Davis VP2